FTTA

Sarh Airport

Sarh, Chad
METAR FTTA 222100Z 16008KT 9999 TS SCT050CB 31/20 Q1010
Observed Flight Rules
Apr-22 @ 21:00 UTC (59 minutes ago) Visual Flight Rules
Wind Visibility Clouds Conditions
160° at 8 knots 10,000+ meters
  • Scattered at 5,000' AGL
  • Thunderstorm
Temperatures Readings
Current 31°C / 88°F
Dewpoint 20°C / 68°F
Humidity 52%
Altimeter 29.82" Hg
Pressure 1010 hPa
Elevation 365
METAR FTTA 222100Z 16008KT 9999 TS SCT050CB 31/20 Q1010
Observed Flight Rules
Apr-22 @ 21:00 UTC
(59 minutes ago)
VFR
Wind Visibility
160° at 8 knots 10,000+ meters
Clouds
  • Scattered at 5,000' AGL
Conditions
  • Thunderstorm
Temperature Dewpoint
31°C / 88°F 20°C / 68°F
Humidity Altimeter Pressure
52% 29.82" Hg 1010 hPa